Time;durP1;ratioP1;P1;durP2;ratioP2;P2;SDS_P1;SDS_P2;PMS_P1;PMS_P2;Temp;Humidity;BMP_temperature;BMP_pressure;BME280_temperature;BME280_humidity;BME280_pressure;Samples;Min_cycle;Max_cycle;Signal;HPM_P1;HPM_P2
2023/08/08 00:00:53;;;;;;;3.67;0.73;;;;;;;26.64;39.22;98496.31;5075378;28;20221;-87
2023/08/08 00:03:20;;;;;;;1.70;0.60;;;;;;;26.71;39.10;98497.19;5073828;28;20294;-86
2023/08/08 00:05:47;;;;;;;1.97;0.60;;;;;;;26.64;39.04;98490.94;5073893;28;20172;-88
2023/08/08 00:08:13;;;;;;;2.37;0.80;;;;;;;26.70;38.77;98498.22;5072418;28;20239;-86
2023/08/08 00:10:40;;;;;;;1.13;0.53;;;;;;;26.71;38.29;98499.88;5072435;28;20187;-87
2023/08/08 00:13:06;;;;;;;1.20;0.50;;;;;;;26.59;37.85;98496.91;5078566;28;20533;-86
2023/08/08 00:15:33;;;;;;;1.03;0.50;;;;;;;26.60;37.50;98498.56;5093569;28;20169;-86
2023/08/08 00:17:58;;;;;;;1.50;0.67;;;;;;;26.56;37.85;98500.00;5093533;28;20172;-87
2023/08/08 00:20:24;;;;;;;0.70;0.37;;;;;;;26.55;37.05;98500.19;5092560;28;20183;-86
2023/08/08 00:22:50;;;;;;;1.07;0.50;;;;;;;26.47;37.13;98497.63;5093367;28;20196;-86
2023/08/08 00:25:18;;;;;;;0.77;0.37;;;;;;;26.54;37.26;98498.53;5093201;28;20732;-87
2023/08/08 00:27:44;;;;;;;2.23;0.60;;;;;;;26.69;36.68;98508.16;5093430;28;20184;-86
2023/08/08 00:30:14;;;;;;;1.07;0.40;;;;;;;26.72;36.80;98502.38;5093402;28;20212;-87
2023/08/08 00:32:41;;;;;;;1.60;0.50;;;;;;;26.73;36.59;98498.63;5092754;28;20214;-86
2023/08/08 00:35:09;;;;;;;0.60;0.23;;;;;;;26.79;36.27;98505.94;5093378;28;20206;-87
2023/08/08 00:37:35;;;;;;;1.87;0.40;;;;;;;26.84;36.47;98513.41;5093893;28;20571;-86
2023/08/08 00:40:02;;;;;;;1.07;0.40;;;;;;;26.93;36.45;98514.09;5092073;28;20629;-86
2023/08/08 00:42:29;;;;;;;0.93;0.50;;;;;;;26.96;36.09;98516.38;5092997;28;20219;-87
2023/08/08 00:45:03;;;;;;;0.73;0.33;;;;;;;27.00;35.81;98510.41;5093829;28;20621;-87
2023/08/08 00:47:33;;;;;;;0.63;0.33;;;;;;;27.03;36.31;98515.38;5093812;28;20178;-86
2023/08/08 00:50:02;;;;;;;1.43;0.53;;;;;;;27.03;35.86;98514.53;5093256;28;20160;-87
2023/08/08 00:52:29;;;;;;;1.00;0.40;;;;;;;27.05;35.77;98513.31;5092935;28;20188;-87
2023/08/08 00:54:56;;;;;;;0.83;0.40;;;;;;;27.10;36.08;98513.53;5093261;28;20233;-87
2023/08/08 00:57:22;;;;;;;0.60;0.27;;;;;;;27.13;35.77;98521.22;5092890;28;20213;-87
2023/08/08 00:59:48;;;;;;;0.97;0.30;;;;;;;27.15;35.94;98513.78;5092191;28;20267;-87
2023/08/08 01:02:15;;;;;;;0.93;0.40;;;;;;;27.12;36.42;98524.13;5092392;28;20237;-87
2023/08/08 01:04:41;;;;;;;0.83;0.40;;;;;;;27.08;36.26;98526.38;5092067;28;20184;-88
2023/08/08 01:07:37;;;;;;;1.20;0.33;;;;;;;27.02;36.64;98521.78;5092133;28;20172;-87
2023/08/08 01:10:12;;;;;;;7.50;0.60;;;;;;;27.06;36.52;98533.81;5075895;28;20249;-87
2023/08/08 01:12:43;;;;;;;0.80;0.40;;;;;;;27.07;36.60;98527.38;5086784;28;20175;-87
2023/08/08 01:15:11;;;;;;;0.67;0.30;;;;;;;27.15;36.08;98524.53;5093308;28;20188;-87
2023/08/08 01:17:37;;;;;;;0.50;0.30;;;;;;;27.17;36.47;98522.50;5091891;28;20176;-87
2023/08/08 01:20:08;;;;;;;0.63;0.30;;;;;;;27.18;36.54;98524.13;5091936;28;20213;-86
2023/08/08 01:23:01;;;;;;;0.90;0.37;;;;;;;27.18;36.61;98523.31;5091824;28;20684;-87
2023/08/08 01:25:26;;;;;;;1.37;0.70;;;;;;;27.03;37.09;98526.16;5090958;28;20232;-87
2023/08/08 01:27:53;;;;;;;1.03;0.50;;;;;;;27.00;37.40;98531.09;5077876;28;20196;-87
2023/08/08 01:30:20;;;;;;;0.83;0.30;;;;;;;26.88;37.57;98528.16;5075233;28;20189;-87
2023/08/08 01:32:47;;;;;;;2.17;0.60;;;;;;;26.93;37.90;98539.13;5076538;28;20188;-87
2023/08/08 01:35:14;;;;;;;0.67;0.37;;;;;;;26.88;38.08;98538.91;5075606;28;20196;-87
2023/08/08 01:37:52;;;;;;;1.20;0.43;;;;;;;26.84;37.86;98535.78;5076075;28;20185;-87
2023/08/08 01:40:19;;;;;;;0.80;0.30;;;;;;;26.64;38.10;98534.78;5076536;28;20213;-87
2023/08/08 01:42:47;;;;;;;1.53;0.50;;;;;;;26.72;38.19;98542.72;5075940;28;20201;-87
2023/08/08 01:45:16;;;;;;;1.40;0.37;;;;;;;26.73;38.43;98530.06;5076067;28;20177;-86
2023/08/08 01:47:43;;;;;;;0.70;0.40;;;;;;;26.76;38.64;98535.06;5076047;28;20326;-86
2023/08/08 01:50:09;;;;;;;0.60;0.20;;;;;;;26.81;38.58;98543.38;5075985;28;20173;-86
2023/08/08 01:52:35;;;;;;;1.10;0.50;;;;;;;26.77;38.66;98540.28;5075855;28;20183;-87
2023/08/08 01:55:01;;;;;;;0.63;0.40;;;;;;;26.85;38.60;98544.69;5081447;28;20199;-87
2023/08/08 01:57:27;;;;;;;1.40;0.30;;;;;;;26.92;38.72;98550.91;5095001;28;20701;-87
2023/08/08 01:59:53;;;;;;;0.40;0.20;;;;;;;26.95;38.67;98549.69;5096022;28;20184;-88
2023/08/08 02:02:20;;;;;;;0.83;0.40;;;;;;;26.89;38.98;98556.69;5095743;28;20180;-87
2023/08/08 02:04:46;;;;;;;0.90;0.40;;;;;;;26.87;39.05;98558.75;5096490;28;20173;-87
2023/08/08 02:07:14;;;;;;;1.33;0.53;;;;;;;26.91;39.14;98560.03;5096354;28;20180;-88
2023/08/08 02:09:39;;;;;;;1.13;0.40;;;;;;;26.88;39.48;98565.81;5095847;28;20204;-88
2023/08/08 02:12:05;;;;;;;1.33;0.53;;;;;;;26.84;39.63;98564.50;5094825;28;20214;-87
2023/08/08 02:14:32;;;;;;;2.13;0.60;;;;;;;26.82;40.15;98559.34;5095903;28;20241;-87
2023/08/08 02:16:58;;;;;;;0.93;0.40;;;;;;;26.87;40.43;98568.66;5094773;28;20203;-87
2023/08/08 02:19:24;;;;;;;1.33;0.57;;;;;;;26.83;40.26;98554.81;5094719;28;20626;-86
2023/08/08 02:21:50;;;;;;;2.07;0.80;;;;;;;26.78;41.07;98565.31;5095648;28;20249;-87
2023/08/08 02:24:16;;;;;;;1.23;0.60;;;;;;;26.73;41.30;98568.53;5095360;28;20224;-87
2023/08/08 02:26:43;;;;;;;1.77;0.50;;;;;;;26.61;41.59;98570.13;5096084;28;20508;-86
2023/08/08 02:29:09;;;;;;;2.33;0.90;;;;;;;26.56;42.06;98572.56;5095651;28;20181;-87
2023/08/08 02:31:36;;;;;;;1.87;0.60;;;;;;;26.54;42.38;98577.31;5094435;28;20549;-87
2023/08/08 02:34:02;;;;;;;1.37;0.70;;;;;;;26.58;42.69;98577.75;5094735;28;20629;-87
2023/08/08 02:36:29;;;;;;;2.80;1.13;;;;;;;26.52;42.90;98575.88;5095045;28;20176;-87
2023/08/08 02:38:55;;;;;;;2.63;0.90;;;;;;;26.45;43.04;98585.72;5095211;28;20180;-89
2023/08/08 02:41:22;;;;;;;4.20;0.70;;;;;;;26.44;43.43;98592.94;5087740;28;20195;-89
2023/08/08 02:43:49;;;;;;;2.20;1.10;;;;;;;26.38;43.83;98598.28;5072142;28;20686;-89
2023/08/08 02:46:14;;;;;;;2.37;0.93;;;;;;;26.28;44.53;98595.09;5078068;28;20275;-87
2023/08/08 02:48:41;;;;;;;2.63;1.00;;;;;;;26.24;44.44;98603.53;5090056;28;20262;-87
2023/08/08 02:51:07;;;;;;;1.83;0.87;;;;;;;26.20;44.68;98604.13;5092496;28;20435;-87
2023/08/08 02:53:34;;;;;;;2.30;0.93;;;;;;;26.25;44.88;98609.75;5075099;28;20169;-87
2023/08/08 02:56:01;;;;;;;3.33;1.00;;;;;;;26.23;45.04;98601.84;5073678;28;20173;-87
2023/08/08 02:58:27;;;;;;;3.13;0.77;;;;;;;26.40;44.65;98615.88;5073686;28;20181;-87
2023/08/08 03:00:54;;;;;;;2.57;0.80;;;;;;;26.42;44.63;98618.34;5077973;28;20263;-87
2023/08/08 03:03:20;;;;;;;1.97;1.00;;;;;;;26.37;45.18;98626.16;5093784;28;20211;-86
2023/08/08 03:05:48;;;;;;;2.77;0.90;;;;;;;26.37;45.53;98628.84;5095344;28;20180;-87
2023/08/08 03:08:15;;;;;;;1.90;1.00;;;;;;;26.38;45.29;98628.66;5094713;28;20257;-87
2023/08/08 03:10:41;;;;;;;1.30;0.70;;;;;;;26.20;45.73;98615.66;5093628;28;20199;-86
2023/08/08 03:13:09;;;;;;;2.00;0.77;;;;;;;26.19;45.93;98611.34;5093630;28;20172;-86
2023/08/08 03:15:35;;;;;;;1.30;0.63;;;;;;;25.94;46.40;98618.06;5094844;28;20237;-87
2023/08/08 03:18:03;;;;;;;1.87;0.80;;;;;;;25.88;46.91;98618.84;5093532;28;20615;-86
2023/08/08 03:20:29;;;;;;;1.90;0.67;;;;;;;25.92;46.65;98611.22;5093610;28;20613;-87
2023/08/08 03:22:56;;;;;;;2.20;0.57;;;;;;;25.92;47.28;98616.56;5074383;28;20342;-86
2023/08/08 03:25:21;;;;;;;1.63;0.70;;;;;;;25.80;47.44;98621.63;5081304;28;20293;-86
2023/08/08 03:27:48;;;;;;;1.77;0.80;;;;;;;25.71;47.76;98630.81;5093902;28;20224;-87
2023/08/08 03:30:15;;;;;;;1.47;0.43;;;;;;;25.62;48.15;98631.97;5093349;28;20223;-87
2023/08/08 03:32:42;;;;;;;3.93;0.93;;;;;;;25.64;48.16;98629.91;5094154;28;20186;-87
2023/08/08 03:35:09;;;;;;;1.20;0.50;;;;;;;25.72;47.80;98643.22;5093119;28;20248;-87
2023/08/08 03:37:35;;;;;;;1.07;0.50;;;;;;;25.68;48.21;98647.31;5094109;28;20180;-86
2023/08/08 03:40:02;;;;;;;1.33;0.60;;;;;;;25.59;48.46;98637.69;5093454;28;20191;-86
2023/08/08 03:42:29;;;;;;;2.00;0.50;;;;;;;25.42;48.89;98642.41;5092920;28;20172;-87
2023/08/08 03:44:56;;;;;;;1.17;0.50;;;;;;;25.05;49.98;98635.28;5092555;28;20225;-87
2023/08/08 03:47:23;;;;;;;3.03;0.40;;;;;;;25.10;50.24;98653.53;5092466;28;20527;-87
2023/08/08 03:49:50;;;;;;;1.40;0.60;;;;;;;25.16;49.42;98647.41;5093593;28;20169;-86
2023/08/08 03:52:16;;;;;;;1.03;0.33;;;;;;;25.31;49.05;98655.47;5092842;28;20195;-87
2023/08/08 03:54:44;;;;;;;0.87;0.30;;;;;;;25.19;49.60;98654.25;5092971;28;20176;-87
2023/08/08 03:57:10;;;;;;;1.13;0.47;;;;;;;25.16;49.55;98662.69;5092842;28;20176;-86
2023/08/08 03:59:37;;;;;;;0.97;0.43;;;;;;;25.22;49.53;98651.19;5093741;28;20176;-86
2023/08/08 04:02:04;;;;;;;2.87;0.30;;;;;;;25.15;49.85;98651.13;5091470;28;20180;-86
2023/08/08 04:04:31;;;;;;;0.43;0.20;;;;;;;24.99;50.34;98656.66;5093394;28;20227;-87
2023/08/08 04:06:57;;;;;;;2.17;0.27;;;;;;;24.92;50.58;98666.44;5092550;28;20188;-86
2023/08/08 04:09:24;;;;;;;0.67;0.30;;;;;;;24.59;51.64;98676.59;5093235;28;20188;-86
2023/08/08 04:11:51;;;;;;;1.47;0.40;;;;;;;24.56;51.90;98671.59;5092542;28;20590;-86
2023/08/08 04:14:18;;;;;;;1.53;0.40;;;;;;;24.43;52.56;98666.00;5072409;28;20176;-85
2023/08/08 04:16:44;;;;;;;0.83;0.50;;;;;;;24.21;53.08;98673.00;5082889;28;20180;-86
2023/08/08 04:19:11;;;;;;;1.27;0.37;;;;;;;24.18;53.28;98673.41;5091825;28;20241;-85
2023/08/08 04:21:38;;;;;;;1.77;0.60;;;;;;;24.30;53.48;98681.84;5093113;28;20176;-86
2023/08/08 04:24:07;;;;;;;0.60;0.30;;;;;;;24.13;53.26;98691.00;5083997;28;20193;-85
2023/08/08 04:26:34;;;;;;;2.27;0.60;;;;;;;24.24;53.35;98698.63;5071712;28;20173;-85
2023/08/08 04:29:01;;;;;;;1.33;0.60;;;;;;;24.39;52.71;98703.06;5075975;28;20193;-85
2023/08/08 04:31:28;;;;;;;1.00;0.50;;;;;;;24.39;52.47;98699.53;5083609;28;20590;-86
2023/08/08 04:33:59;;;;;;;1.37;0.50;;;;;;;24.19;53.21;98701.00;5088992;28;20270;-85
2023/08/08 04:36:27;;;;;;;0.93;0.40;;;;;;;24.02;54.05;98710.94;5085368;28;20205;-86
2023/08/08 04:38:54;;;;;;;0.80;0.30;;;;;;;23.97;54.22;98713.31;5074693;28;20185;-86
2023/08/08 04:41:21;;;;;;;0.70;0.40;;;;;;;23.75;54.82;98709.56;5082182;28;20177;-85
2023/08/08 04:43:48;;;;;;;2.33;0.47;;;;;;;23.93;54.64;98711.97;5093173;28;20724;-86
2023/08/08 04:46:15;;;;;;;2.13;0.90;;;;;;;23.81;54.91;98713.41;5092322;28;20180;-84
2023/08/08 04:48:41;;;;;;;0.93;0.50;;;;;;;23.63;55.60;98727.03;5092260;28;20184;-85
2023/08/08 04:51:08;;;;;;;1.57;0.40;;;;;;;23.62;56.07;98740.56;5086341;28;20564;-85
2023/08/08 04:53:35;;;;;;;1.53;0.37;;;;;;;23.56;56.42;98731.38;5072065;28;20188;-85
2023/08/08 04:56:02;;;;;;;1.70;0.50;;;;;;;23.73;55.74;98741.03;5072316;28;20562;-85
2023/08/08 04:58:29;;;;;;;1.73;0.53;;;;;;;23.53;56.46;98749.63;5073280;28;20184;-87
2023/08/08 05:00:56;;;;;;;1.37;0.50;;;;;;;23.68;56.01;98753.25;5076074;28;20251;-86
2023/08/08 05:03:23;;;;;;;0.80;0.33;;;;;;;23.49;56.84;98756.31;5076894;28;20248;-86
2023/08/08 05:05:49;;;;;;;0.93;0.43;;;;;;;23.41;57.33;98765.22;5086502;28;20184;-86
2023/08/08 05:08:16;;;;;;;1.37;0.60;;;;;;;23.48;57.01;98770.72;5097318;28;20176;-87
2023/08/08 05:10:43;;;;;;;0.80;0.50;;;;;;;23.45;57.14;98769.22;5096199;28;20176;-85
2023/08/08 05:13:10;;;;;;;1.10;0.43;;;;;;;23.59;56.96;98778.34;5097490;28;20246;-86
2023/08/08 05:15:35;;;;;;;3.97;0.60;;;;;;;23.31;57.83;98783.25;5094302;28;20195;-85
2023/08/08 05:18:02;;;;;;;2.53;0.57;;;;;;;23.30;58.46;98775.38;5091195;28;20739;-87
2023/08/08 05:20:29;;;;;;;1.87;0.70;;;;;;;23.36;58.00;98798.78;5095111;28;20678;-88
2023/08/08 05:22:56;;;;;;;1.80;0.43;;;;;;;23.20;58.67;98795.13;5088348;28;20230;-87
2023/08/08 05:25:21;;;;;;;1.23;0.53;;;;;;;23.02;59.82;98794.47;5074252;28;20232;-89
2023/08/08 05:27:49;;;;;;;1.70;0.97;;;;;;;23.11;59.89;98804.16;5074424;28;20191;-86
2023/08/08 05:30:16;;;;;;;0.87;0.50;;;;;;;23.39;59.02;98810.03;5073354;28;20173;-87
2023/08/08 05:32:41;;;;;;;1.33;0.50;;;;;;;23.14;59.43;98816.34;5077982;28;20176;-86
2023/08/08 05:35:08;;;;;;;1.57;0.47;;;;;;;23.00;60.06;98819.69;5094273;28;20535;-88
2023/08/08 05:37:35;;;;;;;2.03;0.47;;;;;;;22.88;60.98;98826.34;5095517;28;20544;-87
2023/08/08 05:40:03;;;;;;;0.93;0.50;;;;;;;22.88;61.39;98832.53;5096500;28;20192;-89
2023/08/08 05:42:31;;;;;;;0.83;0.30;;;;;;;23.20;61.04;98842.41;5086972;28;20618;-86
2023/08/08 05:44:58;;;;;;;1.97;0.40;;;;;;;23.08;61.50;98847.28;5095302;28;20566;-87
2023/08/08 05:47:25;;;;;;;0.73;0.47;;;;;;;22.73;62.92;98846.72;5095872;28;20233;-88
2023/08/08 05:49:51;;;;;;;1.97;0.60;;;;;;;22.75;63.26;98858.91;5095942;28;20294;-88
2023/08/08 05:52:17;;;;;;;1.07;0.30;;;;;;;22.71;63.34;98854.06;5088777;28;20181;-89
2023/08/08 05:54:43;;;;;;;2.10;0.70;;;;;;;22.97;62.78;98858.28;5089463;28;20237;-87
2023/08/08 05:57:10;;;;;;;2.20;0.77;;;;;;;22.60;63.33;98871.22;5076748;28;20173;-88
2023/08/08 05:59:37;;;;;;;1.23;0.40;;;;;;;22.56;63.90;98880.56;5086139;28;20189;-87
2023/08/08 06:02:04;;;;;;;1.93;0.60;;;;;;;22.21;65.36;98881.59;5089129;28;20259;-88
2023/08/08 06:04:31;;;;;;;0.60;0.40;;;;;;;22.19;65.82;98880.06;5094431;28;20215;-87
2023/08/08 06:06:58;;;;;;;2.33;0.60;;;;;;;22.26;65.70;98892.63;5087956;28;20190;-87
2023/08/08 06:09:25;;;;;;;3.17;0.80;;;;;;;22.32;66.18;98900.00;5095283;28;20287;-86
2023/08/08 06:11:51;;;;;;;5.10;0.63;;;;;;;22.26;66.85;98905.97;5082110;28;20198;-86
2023/08/08 06:14:18;;;;;;;1.13;0.67;;;;;;;22.17;66.56;98911.44;5086692;28;20242;-87
2023/08/08 06:16:46;;;;;;;2.27;0.50;;;;;;;21.88;66.99;98923.28;5090970;28;20618;-87
2023/08/08 06:19:14;;;;;;;0.97;0.40;;;;;;;22.08;66.29;98931.06;5084702;28;20591;-86
2023/08/08 06:21:41;;;;;;;1.33;0.50;;;;;;;21.81;67.05;98943.53;5075452;28;20206;-88
2023/08/08 06:24:08;;;;;;;1.37;0.67;;;;;;;21.89;67.40;98953.47;5075281;28;20219;-86
2023/08/08 06:26:35;;;;;;;1.60;0.57;;;;;;;21.80;67.88;98944.53;5087325;28;20228;-87
2023/08/08 06:29:01;;;;;;;1.50;0.50;;;;;;;21.68;68.71;98947.59;5095808;28;20181;-86
2023/08/08 06:31:29;;;;;;;1.70;0.73;;;;;;;21.65;67.90;98947.91;5093080;28;20186;-86
2023/08/08 06:33:56;;;;;;;3.50;0.90;;;;;;;21.63;68.53;98955.25;5075191;28;20173;-86
2023/08/08 06:36:23;;;;;;;1.20;0.70;;;;;;;21.63;67.94;98957.91;5075407;28;20534;-86
2023/08/08 06:38:50;;;;;;;1.53;0.70;;;;;;;21.42;68.31;98953.75;5075173;28;20181;-89
2023/08/08 06:41:15;;;;;;;1.70;0.67;;;;;;;21.31;68.70;98950.47;5075673;28;20599;-87
2023/08/08 06:43:42;;;;;;;1.47;0.57;;;;;;;21.55;67.78;98952.50;5079442;28;20215;-86
2023/08/08 06:46:09;;;;;;;1.60;1.00;;;;;;;21.48;68.02;98956.78;5095113;28;20244;-86
2023/08/08 06:48:35;;;;;;;1.50;0.80;;;;;;;21.62;67.44;98969.59;5085119;28;20271;-86
2023/08/08 06:51:02;;;;;;;1.87;0.83;;;;;;;21.53;68.87;98979.34;5079428;28;20188;-88
2023/08/08 06:53:29;;;;;;;4.80;1.10;;;;;;;21.47;69.99;98977.28;5073701;28;20600;-87
2023/08/08 06:55:56;;;;;;;1.37;0.67;;;;;;;21.24;71.21;98976.91;5074877;28;20226;-88
2023/08/08 06:58:21;;;;;;;1.10;0.63;;;;;;;21.35;71.74;98981.19;5073803;28;20618;-85
2023/08/08 07:00:50;;;;;;;2.43;1.00;;;;;;;21.09;73.78;98994.41;5074940;28;20187;-86
2023/08/08 07:03:17;;;;;;;1.63;0.90;;;;;;;21.13;73.81;98995.78;5076912;28;20295;-87
2023/08/08 07:05:43;;;;;;;2.13;0.80;;;;;;;21.11;73.68;98995.09;5084386;28;20195;-87
2023/08/08 07:08:10;;;;;;;1.83;0.90;;;;;;;21.31;72.47;98985.97;5088086;28;20184;-87
2023/08/08 07:10:37;;;;;;;4.30;0.90;;;;;;;21.44;71.09;98989.09;5093178;28;20271;-86
2023/08/08 07:13:02;;;;;;;2.50;0.70;;;;;;;21.44;70.95;98994.44;5094864;28;20180;-86
2023/08/08 07:15:30;;;;;;;2.57;1.10;;;;;;;21.43;70.64;98987.41;5092854;28;20322;-86
2023/08/08 07:17:57;;;;;;;2.03;1.00;;;;;;;21.50;70.71;98992.13;5094202;28;20766;-86
2023/08/08 07:20:24;;;;;;;1.90;1.00;;;;;;;21.50;70.25;98987.66;5092194;28;20246;-86
2023/08/08 07:22:51;;;;;;;2.20;1.00;;;;;;;21.44;71.13;98983.75;5093893;28;20199;-86
2023/08/08 07:25:17;;;;;;;3.40;0.87;;;;;;;21.60;71.64;98995.56;5077699;28;20237;-86
2023/08/08 07:27:43;;;;;;;2.43;1.10;;;;;;;21.54;71.57;99006.84;5072935;28;20267;-87
2023/08/08 07:30:11;;;;;;;1.97;0.83;;;;;;;21.64;70.76;99010.28;5093105;28;20237;-86
2023/08/08 07:32:38;;;;;;;2.77;1.23;;;;;;;21.70;70.28;99014.97;5093270;28;20215;-86
2023/08/08 07:35:06;;;;;;;2.93;1.03;;;;;;;21.67;70.58;99017.97;5090897;28;20191;-86
2023/08/08 07:37:35;;;;;;;2.47;1.13;;;;;;;21.64;71.11;99015.63;5074220;28;20653;-87
2023/08/08 07:40:01;;;;;;;4.33;0.93;;;;;;;21.68;71.29;99023.16;5072434;28;20548;-86
2023/08/08 07:42:28;;;;;;;2.00;1.03;;;;;;;21.75;71.33;99020.72;5087587;28;20665;-86
2023/08/08 07:44:54;;;;;;;1.87;1.00;;;;;;;21.53;72.11;99018.50;5086761;28;20246;-85
2023/08/08 07:47:21;;;;;;;1.93;1.10;;;;;;;21.48;72.45;99026.13;5074306;28;20642;-86
2023/08/08 07:49:48;;;;;;;4.20;1.23;;;;;;;21.60;72.04;99022.22;5078071;28;20188;-86
2023/08/08 07:52:14;;;;;;;1.90;1.00;;;;;;;21.46;72.75;99025.44;5093920;28;20258;-86
2023/08/08 07:54:41;;;;;;;2.43;0.90;;;;;;;21.54;72.58;99031.69;5089725;28;20176;-86
2023/08/08 07:57:08;;;;;;;2.37;1.27;;;;;;;21.49;72.63;99028.63;5084993;28;20546;-87
2023/08/08 07:59:34;;;;;;;2.17;1.17;;;;;;;21.64;72.30;99031.63;5093059;28;20177;-85
2023/08/08 08:02:01;;;;;;;2.57;1.20;;;;;;;21.71;72.26;99041.53;5083581;28;20626;-86
2023/08/08 08:04:27;;;;;;;3.77;1.30;;;;;;;21.75;72.22;99034.88;5084976;28;20666;-87
2023/08/08 08:06:53;;;;;;;2.30;1.10;;;;;;;21.77;72.06;99037.41;5071098;28;20185;-85
2023/08/08 08:09:18;;;;;;;2.83;1.20;;;;;;;21.81;71.95;99034.28;5070753;28;20713;-86
2023/08/08 08:11:44;;;;;;;4.83;1.30;;;;;;;22.02;70.89;99029.47;5078144;28;20604;-87
2023/08/08 08:14:09;;;;;;;2.87;1.27;;;;;;;21.98;71.30;99041.47;5091599;28;20180;-84
2023/08/08 08:16:35;;;;;;;3.27;1.30;;;;;;;21.91;70.25;99053.72;5092688;28;20210;-83
2023/08/08 08:19:00;;;;;;;2.00;1.03;;;;;;;21.88;69.26;99046.03;5092538;28;20191;-84
2023/08/08 08:21:25;;;;;;;1.80;0.90;;;;;;;21.86;68.96;99053.34;5093086;28;20199;-83
2023/08/08 08:23:51;;;;;;;2.20;1.10;;;;;;;21.87;69.32;99054.19;5092429;28;20199;-83
2023/08/08 08:26:16;;;;;;;2.40;1.23;;;;;;;21.75;69.30;99058.88;5093262;28;20649;-83
2023/08/08 08:28:42;;;;;;;2.67;1.30;;;;;;;21.67;70.17;99053.47;5093999;28;20180;-82
2023/08/08 08:31:08;;;;;;;1.73;1.07;;;;;;;21.71;69.73;99054.03;5093717;28;20184;-82
2023/08/08 08:33:34;;;;;;;2.83;1.30;;;;;;;21.87;69.28;99054.19;5092330;28;20254;-84
2023/08/08 08:35:59;;;;;;;2.87;1.00;;;;;;;21.88;68.76;99056.72;5093155;28;20184;-83
2023/08/08 08:38:24;;;;;;;2.40;1.07;;;;;;;21.83;69.60;99064.31;5093416;28;20617;-82
2023/08/08 08:40:53;;;;;;;2.10;1.00;;;;;;;21.82;69.43;99067.13;5093229;28;20249;-83
2023/08/08 08:43:19;;;;;;;1.83;1.07;;;;;;;21.91;69.36;99068.91;5093290;28;20237;-82
2023/08/08 08:45:51;;;;;;;3.87;1.47;;;;;;;21.97;69.13;99073.63;5093330;28;20635;-82
2023/08/08 08:48:19;;;;;;;2.63;1.00;;;;;;;21.90;69.04;99072.59;5093578;28;20176;-82
2023/08/08 08:50:47;;;;;;;2.77;1.00;;;;;;;22.02;68.73;99077.53;5090109;28;20237;-83
2023/08/08 08:53:14;;;;;;;1.87;1.07;;;;;;;21.80;69.12;99083.28;5091954;28;20172;-82
2023/08/08 08:55:40;;;;;;;2.43;1.30;;;;;;;21.92;69.37;99089.28;5092228;28;20191;-82
2023/08/08 08:58:06;;;;;;;3.07;1.60;;;;;;;21.76;70.42;99079.25;5075888;28;20656;-82
2023/08/08 09:00:33;;;;;;;2.57;1.47;;;;;;;21.91;69.55;99082.25;5086445;28;20206;-83
2023/08/08 09:03:01;;;;;;;2.33;1.40;;;;;;;21.92;69.03;99075.94;5088203;28;20532;-83
2023/08/08 09:05:28;;;;;;;1.97;1.30;;;;;;;21.96;68.22;99075.47;5085087;28;20192;-83
2023/08/08 09:07:55;;;;;;;2.37;1.30;;;;;;;21.96;67.61;99079.94;5072553;28;20181;-83
2023/08/08 09:10:24;;;;;;;2.93;1.50;;;;;;;22.00;67.72;99076.00;5072431;28;20185;-83
2023/08/08 09:12:51;;;;;;;1.83;1.03;;;;;;;21.94;68.69;99076.59;5072304;28;20703;-82
2023/08/08 09:15:17;;;;;;;3.23;1.63;;;;;;;22.07;67.81;99063.69;5072296;28;20181;-83
2023/08/08 09:17:45;;;;;;;2.33;1.33;;;;;;;22.13;67.12;99070.25;5087670;28;20199;-82
2023/08/08 09:20:13;;;;;;;2.60;1.27;;;;;;;22.03;66.88;99070.34;5092345;28;20648;-82
2023/08/08 09:22:39;;;;;;;2.20;1.03;;;;;;;21.83;67.85;99071.47;5090139;28;20642;-82
2023/08/08 09:25:08;;;;;;;2.50;1.20;;;;;;;21.97;66.47;99058.47;5088436;28;20196;-82
2023/08/08 09:27:35;;;;;;;2.87;1.10;;;;;;;21.95;66.48;99063.13;5072197;28;20185;-82
2023/08/08 09:30:03;;;;;;;2.40;1.30;;;;;;;22.17;66.34;99056.44;5072249;28;20185;-83
2023/08/08 09:32:32;;;;;;;1.87;1.13;;;;;;;22.31;65.22;99058.56;5085655;28;20168;-83
2023/08/08 09:34:59;;;;;;;1.70;0.90;;;;;;;22.36;65.26;99066.09;5092232;28;20230;-83
2023/08/08 09:37:28;;;;;;;3.00;1.10;;;;;;;22.40;64.47;99062.97;5090821;28;20203;-83
2023/08/08 09:39:59;;;;;;;2.50;1.10;;;;;;;22.51;65.13;99060.00;5092374;28;20309;-83
2023/08/08 09:42:29;;;;;;;2.00;0.80;;;;;;;22.74;64.70;99059.50;5077556;28;20188;-82
2023/08/08 09:45:00;;;;;;;1.73;0.80;;;;;;;23.03;63.23;99050.13;5072016;28;20199;-83
2023/08/08 09:47:31;;;;;;;2.30;0.90;;;;;;;23.14;61.36;99043.63;5074293;28;20177;-83
2023/08/08 09:50:04;;;;;;;1.67;0.83;;;;;;;23.07;62.13;99039.94;5083987;28;20180;-83
2023/08/08 09:52:33;;;;;;;2.77;1.00;;;;;;;23.25;61.30;99038.00;5095750;28;20253;-83
2023/08/08 09:55:00;;;;;;;1.80;1.00;;;;;;;23.45;60.63;99044.78;5095591;28;20568;-83
2023/08/08 09:57:28;;;;;;;1.73;0.80;;;;;;;23.30;61.71;99054.38;5095589;28;20243;-84
2023/08/08 09:59:55;;;;;;;3.77;0.70;;;;;;;23.23;60.91;99048.03;5095558;28;20179;-83
2023/08/08 10:02:22;;;;;;;1.50;0.80;;;;;;;23.28;60.92;99059.06;5095327;28;20256;-84
2023/08/08 10:04:50;;;;;;;1.77;0.77;;;;;;;23.45;61.37;99051.97;5082183;28;20200;-83
2023/08/08 10:07:17;;;;;;;1.67;0.90;;;;;;;23.41;61.04;99059.47;5078625;28;20189;-83
2023/08/08 10:09:43;;;;;;;2.27;0.90;;;;;;;23.61;59.49;99055.47;5075046;28;20193;-83
2023/08/08 10:12:11;;;;;;;1.07;0.50;;;;;;;23.69;58.17;99051.97;5090282;28;20183;-84
2023/08/08 10:14:41;;;;;;;2.20;0.87;;;;;;;23.71;59.01;99048.16;5086834;28;20237;-83
2023/08/08 10:17:08;;;;;;;2.30;0.83;;;;;;;23.88;58.91;99056.19;5082593;28;20196;-83
2023/08/08 10:19:35;;;;;;;2.10;0.83;;;;;;;23.82;57.68;99050.50;5095134;28;20200;-83
2023/08/08 10:22:07;;;;;;;3.53;1.10;;;;;;;23.81;57.36;99051.53;5079314;28;20660;-83
2023/08/08 10:24:38;;;;;;;1.77;0.90;;;;;;;23.93;56.94;99038.63;5079778;28;20292;-83
2023/08/08 10:27:05;;;;;;;1.50;0.90;;;;;;;23.97;55.60;99041.81;5078780;28;20204;-84
2023/08/08 10:29:33;;;;;;;1.27;0.60;;;;;;;24.03;56.25;99035.78;5073952;28;20559;-83
2023/08/08 10:32:08;;;;;;;3.93;1.53;;;;;;;23.87;56.25;99038.47;5083738;28;20598;-82
2023/08/08 10:34:46;;;;;;;3.07;1.30;;;;;;;24.07;56.31;99031.75;5095183;28;20159;-83
2023/08/08 10:37:25;;;;;;;4.93;1.80;;;;;;;24.39;55.74;99035.28;5092453;28;20729;-83
2023/08/08 10:39:58;;;;;;;3.00;1.00;;;;;;;24.55;53.41;99023.69;5088924;28;20185;-82
2023/08/08 10:42:27;;;;;;;2.37;1.30;;;;;;;24.51;53.33;99033.06;5095153;28;20599;-84
2023/08/08 10:45:01;;;;;;;2.30;1.17;;;;;;;24.66;53.42;99031.34;5089858;28;20220;-83
2023/08/08 10:47:37;;;;;;;1.87;1.03;;;;;;;24.69;52.27;99020.28;5080574;28;20195;-84
2023/08/08 10:50:21;;;;;;;2.57;1.10;;;;;;;24.68;52.83;99023.13;5084826;28;20259;-83
2023/08/08 10:52:55;;;;;;;1.63;0.77;;;;;;;25.02;53.69;99012.97;5094963;28;20172;-84
2023/08/08 10:55:33;;;;;;;1.40;1.00;;;;;;;24.86;53.68;99008.53;5094862;28;20168;-83
2023/08/08 10:58:19;;;;;;;1.60;0.90;;;;;;;25.02;53.80;99008.47;5087999;28;20188;-83
2023/08/08 11:00:46;;;;;;;2.37;1.17;;;;;;;25.46;52.03;99008.72;5089680;28;20188;-84
2023/08/08 11:03:13;;;;;;;2.47;1.10;;;;;;;25.74;51.61;99008.19;5094539;28;20204;-83
2023/08/08 11:05:44;;;;;;;1.73;1.03;;;;;;;25.91;51.65;99007.88;5093455;28;20180;-83
2023/08/08 11:08:10;;;;;;;1.73;0.90;;;;;;;26.33;49.51;99018.09;5092069;28;20187;-84
2023/08/08 11:10:38;;;;;;;1.60;0.93;;;;;;;26.42;50.07;99008.91;5094447;28;20176;-84
2023/08/08 11:13:07;;;;;;;2.23;1.10;;;;;;;26.37;49.94;99008.63;5093308;28;20176;-85
2023/08/08 11:15:35;;;;;;;3.67;1.30;;;;;;;26.69;49.35;99002.91;5094323;28;20176;-84
2023/08/08 11:18:03;;;;;;;2.27;1.37;;;;;;;26.96;49.46;99003.28;5094270;28;20172;-83
2023/08/08 11:20:34;;;;;;;2.20;1.33;;;;;;;27.14;47.81;98990.25;5082379;28;20185;-84
2023/08/08 11:23:04;;;;;;;2.10;1.00;;;;;;;27.19;47.00;98985.97;5073514;28;20631;-83
2023/08/08 11:25:30;;;;;;;2.03;1.10;;;;;;;27.41;44.06;98985.00;5073829;28;20290;-84
2023/08/08 11:27:58;;;;;;;2.55;0.98;;;;;;;27.42;41.00;98983.16;5088165;28;20593;-84
2023/08/08 11:30:28;;;;;;;1.43;0.50;;;;;;;27.38;40.77;98977.28;5092044;28;20250;-84
2023/08/08 11:32:55;;;;;;;1.57;0.80;;;;;;;27.86;40.73;98982.94;5093768;28;20168;-84
2023/08/08 11:35:23;;;;;;;1.15;0.50;;;;;;;28.06;41.51;98978.59;5093959;28;20187;-83